Time;durP1;ratioP1;P1;durP2;ratioP2;P2;SDS_P1;SDS_P2;PMS_P1;PMS_P2;Temp;Humidity;BMP_temperature;BMP_pressure;BME280_temperature;BME280_humidity;BME280_pressure;Samples;Min_cycle;Max_cycle;Signal;HPM_P1;HPM_P2
2021/11/02 00:01:06;;;;;;;1.98;1.02;;;;;;;-0.03;98.36;100266.41;5073468;28;20133;-74
2021/11/02 00:03:32;;;;;;;1.63;1.00;;;;;;;-0.08;98.40;100257.75;5092801;28;20142;-74
2021/11/02 00:05:58;;;;;;;1.23;0.82;;;;;;;-0.09;98.34;100266.66;5059124;28;20048;-74
2021/11/02 00:08:24;;;;;;;0.75;0.75;;;;;;;-0.12;98.37;100272.09;5073245;28;20089;-71
2021/11/02 00:10:50;;;;;;;0.80;0.77;;;;;;;-0.14;97.77;100264.22;5056141;28;20056;-73
2021/11/02 00:13:17;;;;;;;1.05;0.70;;;;;;;-0.25;97.91;100254.06;5091731;28;20113;-73
2021/11/02 00:15:51;;;;;;;0.70;0.70;;;;;;;-0.20;98.32;100263.63;5057509;28;20103;-75
2021/11/02 00:18:24;;;;;;;0.93;0.90;;;;;;;-0.15;97.57;100258.94;5075524;28;20047;-72
2021/11/02 00:20:58;;;;;;;0.80;0.80;;;;;;;-0.17;97.02;100260.84;5057273;28;20052;-72
2021/11/02 00:23:24;;;;;;;1.42;0.90;;;;;;;-0.18;97.63;100249.34;5093295;28;20112;-73
2021/11/02 00:25:49;;;;;;;1.00;0.80;;;;;;;-0.20;97.83;100260.97;5074608;28;20497;-73
2021/11/02 00:28:15;;;;;;;0.85;0.85;;;;;;;-0.25;98.50;100259.38;5074164;28;20087;-72
2021/11/02 00:30:41;;;;;;;1.52;0.90;;;;;;;-0.25;98.74;100251.41;5073557;28;20102;-72
2021/11/02 00:33:07;;;;;;;1.48;1.00;;;;;;;-0.36;98.56;100252.81;5057389;28;20123;-74
2021/11/02 00:35:33;;;;;;;1.30;1.02;;;;;;;-0.29;98.57;100265.75;5057433;28;20082;-73
2021/11/02 00:37:58;;;;;;;2.63;1.20;;;;;;;-0.31;98.69;100262.28;5056588;28;20058;-72
2021/11/02 00:40:25;;;;;;;1.70;1.00;;;;;;;-0.28;99.63;100256.84;5073332;28;20063;-74
2021/11/02 00:45:37;;;;;;;3.53;1.60;;;;;;;-0.23;98.87;100258.44;5073258;28;20109;-73
2021/11/02 00:48:13;;;;;;;2.60;1.45;;;;;;;-0.21;99.02;100245.97;5089834;28;20051;-73
2021/11/02 00:50:44;;;;;;;2.90;1.30;;;;;;;-0.12;99.24;100257.03;5072257;28;20566;-73
2021/11/02 00:53:11;;;;;;;1.88;1.20;;;;;;;-0.09;98.65;100258.69;5055361;28;20048;-73
2021/11/02 00:55:38;;;;;;;0.88;0.80;;;;;;;-0.08;98.47;100258.59;5055867;28;20060;-74
2021/11/02 00:58:06;;;;;;;1.45;0.95;;;;;;;-0.27;98.53;100253.25;5039769;28;20130;-73
2021/11/02 01:00:36;;;;;;;1.00;0.90;;;;;;;-0.30;98.21;100248.06;5072189;28;20489;-71
2021/11/02 01:03:03;;;;;;;1.27;1.10;;;;;;;-0.23;98.52;100253.13;5072663;28;20091;-72
2021/11/02 01:05:30;;;;;;;1.88;1.10;;;;;;;-0.15;98.04;100256.28;5056017;28;20052;-72
2021/11/02 01:07:56;;;;;;;2.00;1.02;;;;;;;-0.09;99.25;100256.03;5055782;28;20132;-73
2021/11/02 01:10:23;;;;;;;2.55;1.33;;;;;;;-0.02;98.82;100254.81;5072065;28;20163;-73
2021/11/02 01:12:53;;;;;;;3.13;1.70;;;;;;;-0.05;98.94;100257.63;5073113;28;20051;-72
2021/11/02 01:15:23;;;;;;;3.70;1.83;;;;;;;-0.06;98.77;100239.94;5073011;28;20051;-74
2021/11/02 01:17:50;;;;;;;2.20;1.30;;;;;;;-0.02;98.73;100241.53;5072878;28;20136;-70
2021/11/02 01:20:16;;;;;;;1.95;1.38;;;;;;;0.04;98.92;100246.59;5086550;28;20071;-73
2021/11/02 01:22:45;;;;;;;3.28;1.67;;;;;;;0.05;99.04;100245.63;5073140;28;20193;-73
2021/11/02 01:25:13;;;;;;;3.55;1.60;;;;;;;0.02;98.31;100253.75;5073583;28;20067;-72
2021/11/02 01:27:42;;;;;;;2.03;1.40;;;;;;;0.05;98.27;100252.75;5055907;28;20509;-71
2021/11/02 01:30:13;;;;;;;2.05;1.30;;;;;;;0.09;98.78;100252.53;5041455;28;20152;-74
2021/11/02 01:32:40;;;;;;;3.30;1.45;;;;;;;0.12;98.43;100255.06;5056314;28;20056;-75
2021/11/02 01:35:07;;;;;;;2.75;1.52;;;;;;;0.11;97.71;100253.34;5091094;28;20078;-73
2021/11/02 01:37:38;;;;;;;2.00;1.17;;;;;;;0.14;96.61;100252.31;5055731;28;20059;-72
2021/11/02 01:40:08;;;;;;;1.20;1.10;;;;;;;0.10;95.61;100246.28;5105623;28;20112;-73
2021/11/02 01:42:34;;;;;;;1.40;1.08;;;;;;;0.08;94.48;100252.63;5072249;28;20056;-73
2021/11/02 01:45:05;;;;;;;1.55;1.02;;;;;;;0.03;94.13;100250.16;5089233;28;20071;-72
2021/11/02 01:47:33;;;;;;;0.90;0.90;;;;;;;-0.01;93.53;100253.88;5018104;28;20056;-72
2021/11/02 01:50:00;;;;;;;0.80;0.80;;;;;;;-0.08;92.86;100241.81;5051397;28;20167;-72
2021/11/02 01:52:32;;;;;;;1.30;0.90;;;;;;;-0.14;92.66;100248.28;5051833;28;20132;-73
2021/11/02 01:54:59;;;;;;;1.55;0.93;;;;;;;-0.13;92.74;100244.69;5051894;28;20044;-72
2021/11/02 01:57:28;;;;;;;0.80;0.80;;;;;;;-0.16;91.99;100254.56;5052101;28;20106;-72
2021/11/02 01:59:55;;;;;;;1.63;1.02;;;;;;;-0.21;92.43;100253.94;5051785;28;20057;-71
2021/11/02 02:02:49;;;;;;;1.90;0.90;;;;;;;-0.27;92.23;100247.94;5003629;28;20081;-73
2021/11/02 02:05:28;;;;;;;1.77;1.10;;;;;;;-0.37;92.03;100251.94;5051282;28;20088;-72
2021/11/02 02:08:09;;;;;;;0.88;0.85;;;;;;;-0.45;91.55;100254.06;5075557;28;20502;-72
2021/11/02 02:10:56;;;;;;;1.08;0.90;;;;;;;-0.54;91.68;100259.78;5094092;28;20059;-74
2021/11/02 02:13:39;;;;;;;1.30;1.13;;;;;;;-0.61;92.02;100253.03;5058897;28;20056;-73
2021/11/02 02:16:38;;;;;;;1.42;0.95;;;;;;;-0.70;92.33;100248.94;5058947;28;20180;-73
2021/11/02 02:19:08;;;;;;;1.45;1.00;;;;;;;-0.74;93.42;100253.53;5059176;28;20416;-72
2021/11/02 02:21:39;;;;;;;0.88;0.80;;;;;;;-0.77;93.37;100253.69;5095191;28;20075;-73
2021/11/02 02:24:27;;;;;;;0.80;0.80;;;;;;;-0.80;94.06;100243.19;5072134;28;20524;-71
2021/11/02 02:27:08;;;;;;;0.60;0.60;;;;;;;-0.79;93.98;100252.88;5055388;28;20060;-74
2021/11/02 02:29:39;;;;;;;1.00;0.95;;;;;;;-0.82;94.24;100258.28;5071626;28;20071;-73
2021/11/02 02:32:09;;;;;;;1.38;0.90;;;;;;;-0.84;93.87;100256.63;5054994;28;20148;-72
2021/11/02 02:34:37;;;;;;;1.42;0.90;;;;;;;-0.83;94.58;100253.94;5038593;28;20056;-73
2021/11/02 02:37:05;;;;;;;1.55;1.30;;;;;;;-0.82;94.31;100262.75;5038087;28;20159;-74
2021/11/02 02:39:33;;;;;;;1.25;0.80;;;;;;;-0.80;94.92;100259.09;5038210;28;20049;-73
2021/11/02 02:42:09;;;;;;;1.10;1.00;;;;;;;-0.86;94.25;100251.41;5056237;28;20143;-72
2021/11/02 02:44:45;;;;;;;0.70;0.70;;;;;;;-0.83;93.50;100243.31;5071345;28;20513;-72
2021/11/02 02:47:11;;;;;;;0.60;0.60;;;;;;;-0.83;94.28;100253.06;5073900;28;20060;-72
2021/11/02 02:49:37;;;;;;;0.60;0.60;;;;;;;-0.85;93.50;100250.47;5059267;28;20121;-73
2021/11/02 02:52:06;;;;;;;0.60;0.60;;;;;;;-0.89;93.33;100254.16;5056000;28;20109;-71
2021/11/02 02:54:33;;;;;;;0.60;0.60;;;;;;;-0.97;93.80;100261.59;5057530;28;20570;-73
2021/11/02 02:57:02;;;;;;;0.60;0.60;;;;;;;-1.03;93.68;100257.38;5054923;28;20055;-73
2021/11/02 02:59:29;;;;;;;0.60;0.60;;;;;;;-0.97;93.95;100256.28;5054692;28;20135;-71
2021/11/02 03:01:55;;;;;;;0.60;0.60;;;;;;;-0.91;93.54;100256.03;5072044;28;20048;-72
2021/11/02 03:04:27;;;;;;;0.60;0.60;;;;;;;-0.86;93.86;100264.66;5071667;28;20055;-73
2021/11/02 03:06:56;;;;;;;0.65;0.65;;;;;;;-0.86;94.56;100269.13;5071480;28;20148;-75
2021/11/02 03:09:24;;;;;;;0.60;0.60;;;;;;;-0.87;94.88;100268.25;5070141;28;20177;-71
2021/11/02 03:11:52;;;;;;;1.17;0.90;;;;;;;-0.85;94.97;100268.19;5022124;28;20106;-73
2021/11/02 03:14:30;;;;;;;0.80;0.80;;;;;;;-0.77;95.24;100271.38;5060417;28;20046;-76
2021/11/02 03:17:08;;;;;;;1.60;1.35;;;;;;;-0.68;94.79;100273.66;5092797;28;20492;-73
2021/11/02 03:58:41;;;;;;;0.60;0.60;;;;;;;-0.81;94.33;100278.59;5058703;28;20159;-73
2021/11/02 05:47:24;;;;;;;2.30;1.50;;;;;;;0.47;91.93;100298.63;5076690;28;20043;-74
2021/11/02 05:53:08;;;;;;;5.35;2.55;;;;;;;0.47;92.33;100289.78;5011604;28;20056;-76
2021/11/02 05:56:07;;;;;;;7.32;2.95;;;;;;;0.39;91.83;100283.97;5064239;28;20059;-78
2021/11/02 06:03:42;;;;;;;5.30;2.20;;;;;;;0.39;91.72;100302.56;5082706;28;20086;-75
2021/11/02 06:28:50;;;;;;;3.47;2.15;;;;;;;0.79;90.71;100293.59;5061844;28;20449;-74
2021/11/02 06:32:05;;;;;;;2.88;1.98;;;;;;;0.94;90.69;100302.63;5063311;28;20053;-74
2021/11/02 06:37:23;;;;;;;4.32;2.25;;;;;;;1.01;89.86;100304.06;5074405;28;20056;-74
2021/11/02 06:40:08;;;;;;;3.50;1.95;;;;;;;1.06;89.61;100301.16;5072296;28;20071;-77
2021/11/02 06:42:54;;;;;;;3.65;1.90;;;;;;;1.12;90.10;100293.72;5045427;28;20146;-74
2021/11/02 06:53:55;;;;;;;4.25;2.60;;;;;;;1.06;89.77;100310.03;5071302;28;20055;-74
2021/11/02 06:57:07;;;;;;;3.47;1.90;;;;;;;1.19;89.71;100319.13;5038601;28;20134;-72
2021/11/02 07:00:54;;;;;;;3.17;1.90;;;;;;;1.21;89.75;100305.75;5088376;28;20135;-74
2021/11/02 07:19:33;;;;;;;3.47;2.00;;;;;;;1.31;88.78;100307.00;5076274;28;20064;-73
2021/11/02 08:48:09;;;;;;;0.90;0.90;;;;;;;2.38;88.50;100316.59;5051733;28;20040;-76
2021/11/02 08:50:41;;;;;;;1.00;0.90;;;;;;;2.59;87.75;100311.84;5079040;28;20052;-75
2021/11/02 08:53:11;;;;;;;0.80;0.80;;;;;;;2.68;87.34;100313.19;5043251;28;20059;-75
2021/11/02 08:55:40;;;;;;;0.80;0.80;;;;;;;2.93;87.07;100308.19;5055085;28;20105;-75
2021/11/02 08:58:06;;;;;;;0.90;0.90;;;;;;;3.16;85.24;100324.72;5034481;28;20053;-76
2021/11/02 09:00:33;;;;;;;1.00;1.00;;;;;;;3.36;84.28;100321.75;5052234;28;20052;-76
2021/11/02 09:03:18;;;;;;;0.70;0.70;;;;;;;3.28;84.89;100307.97;5061758;28;20189;-75
2021/11/02 09:05:50;;;;;;;0.70;0.70;;;;;;;3.27;83.82;100314.28;5068264;28;20048;-75
2021/11/02 09:08:16;;;;;;;0.82;0.80;;;;;;;3.11;84.87;100328.50;5022617;28;20479;-74
2021/11/02 09:10:46;;;;;;;0.80;0.80;;;;;;;3.11;84.57;100323.16;5021804;28;20085;-75
2021/11/02 09:13:13;;;;;;;0.70;0.70;;;;;;;3.14;84.76;100323.00;5063544;28;20050;-75
2021/11/02 09:15:41;;;;;;;0.60;0.60;;;;;;;3.24;84.87;100314.44;5070037;28;20443;-75
2021/11/02 09:18:09;;;;;;;0.80;0.80;;;;;;;3.16;84.55;100314.88;5071673;28;20071;-75
2021/11/02 09:20:36;;;;;;;0.82;0.80;;;;;;;3.09;84.83;100325.06;5055250;28;20207;-73
2021/11/02 09:23:03;;;;;;;0.80;0.80;;;;;;;2.91;85.27;100331.44;5065334;28;20079;-66
2021/11/02 09:25:31;;;;;;;1.00;0.90;;;;;;;2.92;85.74;100316.25;5075318;28;20052;-71
2021/11/02 09:27:57;;;;;;;1.77;0.90;;;;;;;2.85;86.08;100319.31;5071792;28;20055;-70
2021/11/02 09:30:24;;;;;;;1.42;1.10;;;;;;;2.58;86.62;100324.34;5083086;28;20166;-69
2021/11/02 09:32:55;;;;;;;1.90;1.23;;;;;;;2.53;87.21;100325.56;5084658;28;20503;-70
2021/11/02 09:35:25;;;;;;;2.10;1.20;;;;;;;2.51;87.38;100325.63;5083407;28;20063;-69
2021/11/02 09:38:00;;;;;;;1.02;0.95;;;;;;;2.55;87.27;100324.50;5073799;28;20067;-68
2021/11/02 09:40:29;;;;;;;0.88;0.88;;;;;;;2.56;87.77;100323.59;5079852;28;20049;-69
2021/11/02 09:42:57;;;;;;;1.15;1.00;;;;;;;2.64;87.83;100313.34;5071882;28;20051;-69
2021/11/02 09:46:00;;;;;;;0.70;0.70;;;;;;;2.78;87.55;100314.38;5066898;28;20135;-71
2021/11/02 09:48:35;;;;;;;0.70;0.70;;;;;;;2.76;87.78;100310.94;5043106;28;20060;-69
2021/11/02 09:51:39;;;;;;;0.85;0.82;;;;;;;2.78;87.16;100314.38;5085539;28;20052;-69
2021/11/02 09:54:16;;;;;;;0.70;0.70;;;;;;;2.75;87.43;100304.75;5021141;28;20363;-70
2021/11/02 09:57:05;;;;;;;0.70;0.70;;;;;;;2.68;87.57;100302.50;5077731;28;20048;-70
2021/11/02 09:59:56;;;;;;;1.00;0.82;;;;;;;2.62;88.02;100307.22;5078246;28;20055;-71
2021/11/02 10:02:48;;;;;;;0.70;0.70;;;;;;;2.86;87.74;100306.81;5069546;28;20052;-70
2021/11/02 10:05:45;;;;;;;0.80;0.80;;;;;;;2.94;86.84;100315.25;5075811;28;20173;-69
2021/11/02 10:08:24;;;;;;;0.88;0.88;;;;;;;2.90;86.44;100308.34;5069872;28;20051;-69
2021/11/02 10:11:27;;;;;;;0.70;0.70;;;;;;;3.13;86.10;100305.22;5080608;28;20485;-70
2021/11/02 10:14:05;;;;;;;0.70;0.70;;;;;;;3.25;85.30;100308.13;5081890;28;20375;-73
2021/11/02 10:16:52;;;;;;;0.68;0.68;;;;;;;3.32;85.42;100315.72;5082345;28;20056;-73
2021/11/02 10:21:56;;;;;;;0.60;0.60;;;;;;;3.08;85.48;100318.00;5094693;27;20421;-67
2021/11/02 10:24:29;;;;;;;1.52;0.90;;;;;;;2.91;86.08;100310.06;5058655;28;20515;-69
2021/11/02 10:27:20;;;;;;;0.60;0.60;;;;;;;2.90;86.81;100303.00;5070012;28;20047;-67
2021/11/02 10:30:42;;;;;;;0.50;0.50;;;;;;;3.07;86.79;100300.25;5103932;28;20032;-67
2021/11/02 10:33:33;;;;;;;1.05;0.90;;;;;;;2.97;86.75;100304.41;5089349;28;20044;-67
2021/11/02 10:36:20;;;;;;;0.60;0.60;;;;;;;2.83;87.56;100302.50;5084360;28;20127;-67
2021/11/02 10:38:56;;;;;;;0.60;0.60;;;;;;;2.76;87.82;100303.78;5083373;28;20072;-67
2021/11/02 10:41:26;;;;;;;0.77;0.60;;;;;;;2.78;87.75;100298.34;5077377;28;20044;-67
2021/11/02 10:44:15;;;;;;;0.55;0.55;;;;;;;2.87;87.80;100297.84;5067564;28;20546;-69
2021/11/02 10:46:59;;;;;;;0.60;0.60;;;;;;;2.94;87.58;100293.88;5069676;28;20045;-68
2021/11/02 10:49:48;;;;;;;0.60;0.60;;;;;;;3.06;87.10;100293.16;5076682;28;20566;-66
2021/11/02 10:52:18;;;;;;;0.70;0.70;;;;;;;3.07;86.77;100292.25;5034909;28;20048;-67
2021/11/02 10:54:47;;;;;;;0.60;0.60;;;;;;;3.14;86.81;100288.28;5048951;28;20139;-68
2021/11/02 10:57:38;;;;;;;0.50;0.50;;;;;;;2.99;87.58;100285.59;5049910;28;20527;-68
2021/11/02 11:25:03;;;;;;;0.73;0.70;;;;;;;2.87;90.06;100271.13;5055787;28;20119;-67
2021/11/02 11:27:32;;;;;;;0.75;0.70;;;;;;;2.87;89.57;100268.47;5007777;28;20140;-67
2021/11/02 11:30:05;;;;;;;0.73;0.70;;;;;;;2.90;89.81;100281.66;5030239;28;20041;-67
2021/11/02 12:09:42;;;;;;;0.70;0.70;;;;;;;2.64;92.34;100273.31;5078755;28;20063;-69
2021/11/02 12:12:09;;;;;;;0.90;0.80;;;;;;;2.61;92.60;100281.47;5017885;28;20419;-70
2021/11/02 12:14:43;;;;;;;0.85;0.73;;;;;;;2.59;93.01;100272.69;5042841;28;20074;-68
2021/11/02 12:50:17;;;;;;;0.30;0.30;;;;;;;16.26;56.63;100234.22;5000556;27;20743;-68
2021/11/02 12:52:45;;;;;;;0.20;0.20;;;;;;;19.08;48.65;100276.47;4550062;28;62820;-61
2021/11/02 12:55:19;;;;;;;121.15;111.85;;;;;;;20.35;42.12;100274.84;4519077;28;20060;-56
2021/11/02 12:57:47;;;;;;;0.65;0.10;;;;;;;20.93;40.47;100261.72;4312941;28;20093;-55
2021/11/02 13:00:17;;;;;;;0.10;0.10;;;;;;;21.51;38.38;100283.38;4293468;32;20057;-52
2021/11/02 13:02:45;;;;;;;0.10;0.10;;;;;;;21.63;36.68;100276.19;4303940;32;20081;-52
2021/11/02 13:05:23;;;;;;;0.10;0.10;;;;;;;21.78;35.65;100286.19;4312215;28;20057;-52
2021/11/02 13:08:01;;;;;;;0.10;0.10;;;;;;;21.94;36.09;100274.78;4308968;28;20060;-53
2021/11/02 13:10:31;;;;;;;0.10;0.10;;;;;;;22.07;35.49;100284.94;4305456;28;20503;-50
2021/11/02 13:13:12;;;;;;;0.10;0.10;;;;;;;22.20;34.86;100273.97;4307861;28;20053;-57
2021/11/02 13:38:39;;;;;;;0.10;0.10;;;;;;;22.54;33.64;100274.78;5094796;27;20436;-51
2021/11/02 13:41:17;;;;;;;0.10;0.10;;;;;;;22.54;33.08;100269.28;4996052;28;20081;-50
2021/11/02 13:43:51;;;;;;;0.10;0.10;;;;;;;22.41;32.88;100247.25;5077478;28;20063;-49
2021/11/02 13:46:23;;;;;;;0.10;0.10;;;;;;;22.45;33.10;100281.56;5079799;28;20059;-54
2021/11/02 13:48:49;;;;;;;0.10;0.10;;;;;;;22.48;34.89;100289.41;4948121;28;20673;-56
2021/11/02 13:51:17;;;;;;;0.10;0.10;;;;;;;22.53;33.21;100282.22;5039130;28;20563;-50
2021/11/02 13:53:43;;;;;;;0.10;0.10;;;;;;;22.79;33.62;100272.22;5038349;28;20556;-56
2021/11/02 14:12:51;;;;;;;0.10;0.10;;;;;;;22.92;32.26;100260.31;5056373;28;20403;-61
2021/11/02 14:15:21;;;;;;;0.05;0.05;;;;;;;22.71;32.10;100258.66;5049452;28;20179;-60
2021/11/02 14:18:14;;;;;;;0.10;0.10;;;;;;;22.78;31.64;100260.34;5046348;28;20055;-64
2021/11/02 14:20:39;;;;;;;0.10;0.10;;;;;;;22.48;32.74;100248.09;5053323;28;20131;-60
2021/11/02 14:23:07;;;;;;;0.10;0.10;;;;;;;22.66;33.07;100251.00;4811539;27;20142;-60
2021/11/02 14:28:53;;;;;;;0.10;0.10;;;;;;;22.73;33.92;100235.31;5031334;28;20752;-36
2021/11/02 14:31:49;;;;;;;0.10;0.10;;;;;;;22.35;33.85;100230.53;4889301;28;20089;-33
2021/11/02 14:34:27;;;;;;;0.10;0.10;;;;;;;22.18;34.62;100225.66;4250244;29;20059;-40
2021/11/02 14:37:16;;;;;;;0.10;0.10;;;;;;;22.10;34.48;100229.44;4265530;28;20588;-36
2021/11/02 14:40:01;;;;;;;0.10;0.10;;;;;;;22.02;35.07;100215.91;4260751;28;20069;-33
2021/11/02 14:42:47;;;;;;;0.10;0.10;;;;;;;22.03;34.79;100221.19;4271731;28;20158;-34
2021/11/02 14:45:49;;;;;;;0.08;0.08;;;;;;;22.05;35.54;100226.50;4264323;28;20065;-33
2021/11/02 14:48:38;;;;;;;0.10;0.10;;;;;;;22.04;35.32;100214.59;4253735;28;20289;-34
2021/11/02 14:51:12;;;;;;;0.10;0.10;;;;;;;21.97;35.36;100212.91;4257933;28;20534;-38
2021/11/02 14:53:42;;;;;;;0.10;0.10;;;;;;;22.05;35.35;100212.72;4263573;28;20086;-33
2021/11/02 14:56:17;;;;;;;0.10;0.10;;;;;;;22.06;35.40;100217.16;4267064;28;20581;-35
2021/11/02 14:58:49;;;;;;;0.10;0.10;;;;;;;22.04;35.60;100220.13;4270738;28;20089;-33
2021/11/02 15:01:19;;;;;;;0.10;0.10;;;;;;;22.04;36.36;100220.13;4258358;28;20085;-38
2021/11/02 15:03:55;;;;;;;0.10;0.10;;;;;;;22.05;34.99;100212.72;4256406;32;20058;-35
2021/11/02 15:06:28;;;;;;;0.10;0.10;;;;;;;22.16;35.29;100223.13;4257106;28;20067;-34
2021/11/02 15:08:55;;;;;;;0.00;0.00;;;;;;;22.20;35.37;100213.38;4257189;28;20499;-35
2021/11/02 15:11:21;;;;;;;0.10;0.10;;;;;;;22.21;35.47;100215.06;4256920;33;20123;-33
2021/11/02 15:13:58;;;;;;;0.10;0.10;;;;;;;22.23;35.36;100229.50;4257534;33;20093;-37
2021/11/02 15:16:25;;;;;;;0.10;0.10;;;;;;;22.27;35.43;100222.50;4255441;28;20062;-34
2021/11/02 15:19:10;;;;;;;0.10;0.10;;;;;;;22.31;35.33;100215.47;4257225;33;20135;-37
2021/11/02 15:21:38;;;;;;;0.10;0.10;;;;;;;22.31;35.58;100215.47;4261362;28;20059;-38
2021/11/02 15:24:29;;;;;;;0.10;0.10;;;;;;;22.35;35.45;100227.75;4257923;33;20046;-35
2021/11/02 15:27:23;;;;;;;0.10;0.10;;;;;;;22.36;35.04;100229.44;4261422;28;20150;-33
2021/11/02 15:29:52;;;;;;;0.10;0.10;;;;;;;22.35;35.32;100224.16;4267879;28;20055;-36
2021/11/02 15:32:24;;;;;;;0.10;0.10;;;;;;;22.34;35.13;100223.31;4258866;33;20054;-32
2021/11/02 15:34:53;;;;;;;0.10;0.10;;;;;;;22.36;35.25;100229.44;4266655;28;20122;-31
2021/11/02 15:37:26;;;;;;;0.10;0.10;;;;;;;22.38;35.37;100221.84;4259202;33;20468;-33
2021/11/02 15:39:58;;;;;;;0.10;0.10;;;;;;;22.41;35.43;100219.69;4256974;28;20133;-31
2021/11/02 15:42:39;;;;;;;0.10;0.10;;;;;;;22.42;35.38;100224.16;4248728;28;20130;-35
2021/11/02 15:45:18;;;;;;;0.10;0.10;;;;;;;22.39;35.19;100228.19;4247338;28;20074;-34
2021/11/02 15:47:48;;;;;;;0.10;0.10;;;;;;;22.41;35.02;100236.22;4252504;28;20063;-32
2021/11/02 15:50:17;;;;;;;0.10;0.10;;;;;;;22.39;35.29;100229.03;4241625;33;20055;-33
2021/11/02 15:52:43;;;;;;;0.10;0.10;;;;;;;22.41;35.25;100230.72;4257183;28;20093;-32
2021/11/02 15:55:18;;;;;;;0.00;0.00;;;;;;;22.38;35.18;100232.84;4242940;33;20126;-34
2021/11/02 15:57:53;;;;;;;0.10;0.10;;;;;;;22.41;35.04;100241.72;4253102;28;20060;-30
2021/11/02 16:00:45;;;;;;;0.10;0.10;;;;;;;22.44;34.86;100244.06;4255309;28;20078;-32
2021/11/02 16:03:12;;;;;;;0.10;0.10;;;;;;;22.43;34.67;100239.63;4637392;28;20050;-32
2021/11/02 16:05:42;;;;;;;0.10;0.10;;;;;;;22.34;35.57;100250.88;4989642;28;20046;-32
2021/11/02 16:08:18;;;;;;;0.10;0.10;;;;;;;22.33;35.31;100251.91;4990623;28;20038;-30
2021/11/02 16:10:45;;;;;;;0.10;0.10;;;;;;;22.33;35.19;100246.41;4992889;28;20049;-33
2021/11/02 16:13:11;;;;;;;0.10;0.10;;;;;;;22.27;34.90;100249.19;4991224;28;20541;-32
2021/11/02 16:15:39;;;;;;;0.10;0.10;;;;;;;22.25;34.99;100243.03;4981564;28;20047;-31
2021/11/02 16:18:22;;;;;;;0.10;0.10;;;;;;;22.24;35.02;100252.38;4972374;28;20057;-31
2021/11/02 16:20:47;;;;;;;;;;;;;;;22.18;35.22;100243.03;4973089;28;20055;-32
2021/11/02 16:23:16;;;;;;;0.10;0.10;;;;;;;22.14;34.97;100236.25;4973988;28;19928;-29
2021/11/02 16:25:45;;;;;;;0.10;0.10;;;;;;;22.06;35.31;100234.53;4973768;28;20058;-31
2021/11/02 16:28:19;;;;;;;0.10;0.10;;;;;;;22.09;35.60;100230.53;4973589;28;20047;-32
2021/11/02 16:30:56;;;;;;;0.10;0.10;;;;;;;22.07;35.74;100236.22;4972315;28;20043;-33
2021/11/02 16:33:41;;;;;;;0.10;0.10;;;;;;;22.02;35.59;100235.19;4973545;28;20459;-31
2021/11/02 16:36:21;;;;;;;0.10;0.10;;;;;;;21.94;35.44;100213.34;4973194;28;20066;-29
2021/11/02 16:38:48;;;;;;;0.10;0.10;;;;;;;22.02;35.60;100232.44;4973622;28;20158;-33
2021/11/02 16:41:22;;;;;;;0.10;0.10;;;;;;;21.91;35.73;100215.47;4972182;28;20042;-31
2021/11/02 16:43:52;;;;;;;0.10;0.10;;;;;;;21.99;35.54;100230.09;4973405;28;20055;-33
2021/11/02 16:46:30;;;;;;;0.10;0.10;;;;;;;21.94;35.06;100219.72;4973305;28;20489;-31
2021/11/02 16:49:14;;;;;;;0.10;0.10;;;;;;;21.97;35.29;100223.94;4972980;28;20051;-31
2021/11/02 16:51:44;;;;;;;0.10;0.10;;;;;;;21.94;35.57;100230.72;4973272;28;20388;-29
2021/11/02 16:54:11;;;;;;;0.10;0.10;;;;;;;21.92;35.43;100227.34;4992705;28;20053;-32
2021/11/02 16:57:02;;;;;;;0.10;0.10;;;;;;;21.90;35.71;100235.81;4992477;28;20046;-31
2021/11/02 16:59:40;;;;;;;0.10;0.10;;;;;;;21.89;35.06;100233.25;4992389;28;20092;-30
2021/11/02 17:02:26;;;;;;;0.10;0.10;;;;;;;21.89;35.08;100239.59;4991411;28;20057;-32
2021/11/02 17:05:07;;;;;;;0.10;0.10;;;;;;;21.88;35.55;100237.91;4991894;28;20491;-31
2021/11/02 17:07:43;;;;;;;0.10;0.10;;;;;;;21.89;35.52;100239.59;4988113;28;20122;-33
2021/11/02 17:10:44;;;;;;;0.10;0.10;;;;;;;21.88;35.22;100226.91;4985120;28;20132;-35
2021/11/02 17:13:26;;;;;;;0.10;0.10;;;;;;;21.86;35.52;100223.50;4985540;28;20050;-31
2021/11/02 17:15:54;;;;;;;0.10;0.10;;;;;;;21.88;35.79;100215.91;4990645;28;20050;-30
2021/11/02 17:18:44;;;;;;;0.10;0.10;;;;;;;21.90;36.05;100213.78;4990312;28;20490;-36
2021/11/02 17:21:11;;;;;;;0.10;0.10;;;;;;;21.90;35.82;100216.53;4987830;28;20077;-32
2021/11/02 17:23:37;;;;;;;0.10;0.10;;;;;;;21.90;35.73;100213.78;4988011;28;20073;-28
2021/11/02 17:26:05;;;;;;;0.10;0.10;;;;;;;21.90;35.64;100208.28;4990149;28;20046;-31
2021/11/02 17:28:32;;;;;;;0.10;0.10;;;;;;;21.92;35.52;100233.69;4990793;28;20522;-32
2021/11/02 17:31:01;;;;;;;0.10;0.10;;;;;;;21.90;35.37;100218.41;4990156;28;20077;-32
2021/11/02 17:33:29;;;;;;;0.10;0.10;;;;;;;21.83;35.21;100201.94;4986752;28;20046;-31
2021/11/02 17:35:56;;;;;;;0.10;0.10;;;;;;;21.90;35.34;100208.28;4990300;28;20579;-30
2021/11/02 17:38:22;;;;;;;0.10;0.10;;;;;;;21.92;35.24;100217.16;4988946;28;20105;-33
2021/11/02 17:40:48;;;;;;;0.08;0.08;;;;;;;21.96;34.83;100227.75;5004503;28;20042;-33
2021/11/02 17:43:15;;;;;;;0.10;0.10;;;;;;;21.96;35.02;100234.09;4987564;28;20573;-30
2021/11/02 17:45:42;;;;;;;0.10;0.10;;;;;;;21.96;35.08;100233.25;5004687;28;20428;-30
2021/11/02 17:48:13;;;;;;;0.10;0.10;;;;;;;21.97;35.05;100226.69;4990019;28;20185;-32
2021/11/02 17:50:39;;;;;;;0.10;0.10;;;;;;;21.98;34.92;100236.66;4990429;28;20050;-30
2021/11/02 17:53:05;;;;;;;0.10;0.10;;;;;;;21.96;34.76;100239.59;4989506;28;20050;-33
2021/11/02 17:55:31;;;;;;;0.10;0.10;;;;;;;21.95;34.54;100237.09;4989915;28;20156;-33
2021/11/02 17:57:59;;;;;;;0.10;0.10;;;;;;;21.94;34.55;100232.63;4989729;28;20046;-33
2021/11/02 18:00:26;;;;;;;0.00;0.00;;;;;;;21.94;34.82;100229.84;4989685;28;20045;-31
2021/11/02 18:02:53;;;;;;;0.10;0.10;;;;;;;21.96;34.76;100233.25;4988008;28;20409;-33
2021/11/02 18:05:22;;;;;;;0.10;0.10;;;;;;;21.92;35.07;100227.34;4989863;28;20225;-31
2021/11/02 18:07:48;;;;;;;0.10;0.10;;;;;;;21.89;34.92;100227.75;4989348;28;20049;-31
2021/11/02 18:10:15;;;;;;;0.10;0.10;;;;;;;21.96;34.77;100236.00;4989402;28;20042;-33
2021/11/02 18:12:41;;;;;;;0.10;0.10;;;;;;;21.96;34.59;100231.34;4989561;28;20094;-33
2021/11/02 18:15:08;;;;;;;0.10;0.10;;;;;;;21.94;34.83;100229.84;4988753;28;20042;-34
2021/11/02 18:17:37;;;;;;;0.10;0.10;;;;;;;21.93;34.83;100240.03;4989637;28;20157;-32
2021/11/02 18:20:04;;;;;;;0.10;0.10;;;;;;;21.77;34.66;100208.25;4989664;28;20049;-33
2021/11/02 18:22:31;;;;;;;0.00;0.00;;;;;;;21.92;34.93;100236.44;4986800;28;20049;-32
2021/11/02 18:24:57;;;;;;;0.10;0.10;;;;;;;21.91;35.10;100236.66;4989887;28;20038;-32
2021/11/02 18:27:23;;;;;;;0.10;0.10;;;;;;;21.87;34.92;100230.72;5004140;28;20065;-33
2021/11/02 18:29:50;;;;;;;0.10;0.10;;;;;;;21.87;35.41;100230.72;4989735;28;20402;-33
2021/11/02 18:32:20;;;;;;;0.10;0.10;;;;;;;21.86;35.14;100228.16;4989587;28;20069;-33
2021/11/02 18:34:47;;;;;;;0.10;0.10;;;;;;;21.87;35.18;100227.97;4989975;28;20038;-33
2021/11/02 18:37:15;;;;;;;0.10;0.10;;;;;;;21.88;35.04;100232.41;4988602;28;20058;-34
2021/11/02 18:39:41;;;;;;;0.10;0.10;;;;;;;21.87;35.09;100222.47;4984614;28;20073;-33
2021/11/02 18:42:07;;;;;;;0.10;0.10;;;;;;;21.86;35.38;100218.00;4981895;28;20050;-32
2021/11/02 18:44:34;;;;;;;0.10;0.10;;;;;;;21.86;35.08;100223.50;4987651;28;20042;-32
2021/11/02 18:47:01;;;;;;;0.10;0.10;;;;;;;21.86;35.16;100223.50;4999434;28;20497;-32
2021/11/02 18:49:27;;;;;;;0.10;0.10;;;;;;;21.86;34.92;100226.25;4978256;28;20043;-31
2021/11/02 18:51:54;;;;;;;0.10;0.10;;;;;;;21.76;34.77;100206.59;4984423;28;20062;-33
2021/11/02 18:54:20;;;;;;;0.10;0.10;;;;;;;21.78;34.60;100212.69;4987544;28;20097;-30
2021/11/02 18:56:47;;;;;;;0.10;0.10;;;;;;;21.84;34.68;100220.13;4982007;28;20051;-31
2021/11/02 18:59:13;;;;;;;0.10;0.10;;;;;;;21.85;34.43;100216.31;4983276;28;20046;-32
2021/11/02 19:01:42;;;;;;;0.10;0.10;;;;;;;21.91;33.23;100223.72;4985611;28;20200;-31
2021/11/02 19:04:08;;;;;;;0.10;0.10;;;;;;;21.94;32.96;100225.22;5000037;28;20034;-31
2021/11/02 19:06:34;;;;;;;0.10;0.10;;;;;;;21.88;33.51;100204.88;4981207;28;20089;-30
2021/11/02 19:09:01;;;;;;;0.10;0.10;;;;;;;21.90;33.38;100216.53;4985635;28;20080;-30